Time;durP1;ratioP1;P1;durP2;ratioP2;P2;SDS_P1;SDS_P2;PMS_P1;PMS_P2;Temp;Humidity;BMP_temperature;BMP_pressure;BME280_temperature;BME280_humidity;BME280_pressure;Samples;Min_cycle;Max_cycle;Signal;HPM_P1;HPM_P2
2021/01/11 00:00:11;;;;;;;62.47;33.83;;;1.10;99.90;;;;;;5072592;28;20025;-81
2021/01/11 00:02:37;;;;;;;68.50;37.42;;;1.10;99.90;;;;;;5072647;28;20789;-80
2021/01/11 00:05:05;;;;;;;68.38;34.78;;;1.20;99.90;;;;;;5054438;28;20402;-80
2021/01/11 00:07:31;;;;;;;75.95;38.85;;;1.10;99.90;;;;;;5072495;28;20024;-81
2021/01/11 00:09:57;;;;;;;164.30;44.13;;;1.10;99.90;;;;;;5075533;28;20028;-80
2021/01/11 00:12:23;;;;;;;71.30;40.30;;;1.10;99.90;;;;;;5076368;28;20021;-80
2021/01/11 00:14:48;;;;;;;65.15;34.42;;;1.10;99.90;;;;;;5076162;28;20028;-80
2021/01/11 00:17:14;;;;;;;76.15;43.38;;;1.10;99.90;;;;;;5076169;28;20024;-80
2021/01/11 00:19:40;;;;;;;78.60;42.05;;;1.10;99.90;;;;;;5058045;28;20119;-79
2021/01/11 00:22:06;;;;;;;54.30;30.27;;;1.10;99.90;;;;;;5075915;28;20368;-80
2021/01/11 00:24:33;;;;;;;46.63;26.48;;;1.10;99.90;;;;;;5076032;28;20025;-80
2021/01/11 00:26:59;;;;;;;57.88;30.98;;;1.10;99.90;;;;;;5075813;28;20147;-80
2021/01/11 00:29:25;;;;;;;129.15;56.20;;;1.10;99.90;;;;;;5075752;28;20048;-80
2021/01/11 00:31:51;;;;;;;59.83;32.50;;;1.10;99.90;;;;;;5075799;28;20536;-80
2021/01/11 00:34:17;;;;;;;103.72;53.80;;;1.10;99.90;;;;;;5075996;28;20460;-79
2021/01/11 00:36:47;;;;;;;74.00;43.55;;;1.10;99.90;;;;;;5075992;28;20802;-79
2021/01/11 00:39:13;;;;;;;55.88;30.67;;;1.10;99.90;;;;;;5076104;28;20043;-80
2021/01/11 00:41:39;;;;;;;56.03;30.80;;;1.10;99.90;;;;;;5075953;28;20510;-79
2021/01/11 00:44:05;;;;;;;56.53;28.85;;;1.10;99.90;;;;;;5075966;28;20052;-79
2021/01/11 00:46:31;;;;;;;60.90;32.05;;;1.10;99.90;;;;;;5075822;28;20052;-79
2021/01/11 00:48:57;;;;;;;83.95;41.85;;;1.10;99.90;;;;;;5075788;28;20047;-79
2021/01/11 00:51:23;;;;;;;62.47;35.83;;;1.10;99.90;;;;;;5075816;28;20520;-79
2021/01/11 00:53:50;;;;;;;67.95;36.28;;;1.10;99.90;;;;;;5075891;28;20025;-79
2021/01/11 00:56:17;;;;;;;59.08;30.98;;;1.10;99.90;;;;;;5075832;28;20020;-79
2021/01/11 00:58:43;;;;;;;59.95;32.58;;;1.10;99.90;;;;;;5057759;28;20021;-79
2021/01/11 01:01:10;;;;;;;77.72;37.50;;;1.10;99.90;;;;;;5075682;28;20016;-81
2021/01/11 01:03:37;;;;;;;74.95;38.03;;;1.20;99.90;;;;;;5058187;28;20024;-81
2021/01/11 01:06:05;;;;;;;76.22;38.30;;;1.20;99.90;;;;;;5075766;28;20027;-81
2021/01/11 01:08:32;;;;;;;61.30;32.78;;;1.10;99.90;;;;;;5075774;28;20032;-80
2021/01/11 01:10:58;;;;;;;57.08;30.58;;;1.20;99.90;;;;;;5075441;28;20024;-80
2021/01/11 01:13:24;;;;;;;92.38;37.25;;;1.20;99.90;;;;;;5075461;28;20031;-80
2021/01/11 01:15:49;;;;;;;98.28;46.30;;;1.20;99.90;;;;;;5075897;28;20013;-80
2021/01/11 01:18:15;;;;;;;95.70;45.63;;;1.20;99.90;;;;;;5075401;28;20062;-80
2021/01/11 01:20:41;;;;;;;97.28;48.15;;;1.20;99.90;;;;;;5057339;28;20036;-80
2021/01/11 01:23:07;;;;;;;100.60;52.10;;;1.30;99.90;;;;;;5075284;28;20025;-80
2021/01/11 01:25:32;;;;;;;79.72;43.55;;;1.20;99.90;;;;;;5075274;28;20059;-80
2021/01/11 01:27:58;;;;;;;77.90;42.90;;;1.20;99.90;;;;;;5075283;28;20032;-80
2021/01/11 01:30:24;;;;;;;87.00;42.25;;;1.20;99.90;;;;;;5057043;28;20855;-80
2021/01/11 01:32:50;;;;;;;88.53;45.25;;;1.20;99.90;;;;;;5057124;28;20499;-80
2021/01/11 01:35:16;;;;;;;130.30;53.38;;;1.20;99.90;;;;;;5075674;28;20025;-80
2021/01/11 01:37:42;;;;;;;114.53;46.53;;;1.20;99.90;;;;;;5075476;28;20043;-80
2021/01/11 01:40:08;;;;;;;161.10;50.00;;;1.20;99.90;;;;;;5075060;28;20028;-80
2021/01/11 01:42:34;;;;;;;88.35;41.95;;;1.30;99.90;;;;;;5056964;28;20029;-80
2021/01/11 01:45:00;;;;;;;101.43;42.97;;;1.30;99.90;;;;;;5074884;28;20050;-79
2021/01/11 01:47:27;;;;;;;94.05;41.55;;;1.20;99.90;;;;;;5074870;28;20029;-79
2021/01/11 01:49:53;;;;;;;65.38;33.63;;;1.20;99.90;;;;;;5074744;28;20024;-79
2021/01/11 01:52:20;;;;;;;69.97;35.13;;;1.20;99.90;;;;;;5056835;28;20032;-79
2021/01/11 01:54:49;;;;;;;79.97;39.78;;;1.20;99.90;;;;;;5056740;28;20379;-79
2021/01/11 01:57:15;;;;;;;82.38;37.67;;;1.20;99.90;;;;;;5074728;28;20016;-80
2021/01/11 01:59:42;;;;;;;70.47;35.10;;;1.20;99.90;;;;;;5074791;28;20024;-80
2021/01/11 02:02:14;;;;;;;69.20;30.60;;;1.20;99.90;;;;;;5074526;28;20032;-80
2021/01/11 02:04:43;;;;;;;52.85;29.17;;;1.20;99.90;;;;;;5074680;28;20070;-80
2021/01/11 02:07:35;;;;;;;57.47;28.80;;;1.20;99.90;;;;;;5074632;28;20683;-79
2021/01/11 02:10:23;;;;;;;76.28;37.28;;;1.10;99.90;;;;;;5054684;28;20036;-79
2021/01/11 02:13:13;;;;;;;107.00;49.58;;;1.10;99.90;;;;;;5074397;28;20020;-79
2021/01/11 02:16:14;;;;;;;59.10;32.00;;;1.10;99.90;;;;;;5074237;28;20017;-79
2021/01/11 02:19:15;;;;;;;54.13;29.73;;;1.10;99.90;;;;;;5068427;28;20039;-79
2021/01/11 02:22:06;;;;;;;52.08;30.75;;;1.10;99.90;;;;;;5056403;28;20036;-79
2021/01/11 02:24:50;;;;;;;46.78;26.58;;;1.20;99.90;;;;;;5056423;28;20099;-79
2021/01/11 02:27:16;;;;;;;46.20;27.20;;;1.10;99.90;;;;;;5074125;28;20540;-79
2021/01/11 02:30:19;;;;;;;154.52;40.72;;;1.10;99.90;;;;;;5074066;28;20131;-80
2021/01/11 02:33:11;;;;;;;53.88;28.63;;;1.20;99.90;;;;;;5073731;28;20106;-79
2021/01/11 02:35:48;;;;;;;58.28;31.92;;;1.20;99.90;;;;;;5068065;28;20032;-79
2021/01/11 02:38:19;;;;;;;59.63;31.17;;;1.10;99.90;;;;;;5073823;28;20017;-79
2021/01/11 02:40:45;;;;;;;60.97;32.25;;;1.10;99.90;;;;;;5073692;28;20028;-79
2021/01/11 02:43:11;;;;;;;58.90;32.00;;;1.10;99.90;;;;;;5073678;28;20028;-79
2021/01/11 02:45:37;;;;;;;49.63;27.40;;;1.10;99.90;;;;;;5055643;28;20036;-79
2021/01/11 02:48:15;;;;;;;59.33;29.65;;;1.10;99.90;;;;;;5073438;28;20025;-79
2021/01/11 02:51:02;;;;;;;52.13;28.02;;;1.10;99.90;;;;;;5073482;28;20028;-79
2021/01/11 02:54:25;;;;;;;51.13;26.60;;;1.10;99.90;;;;;;5072994;28;20025;-79
2021/01/11 02:57:16;;;;;;;59.35;30.95;;;1.10;99.90;;;;;;5030557;28;20156;-78
2021/01/11 02:59:59;;;;;;;50.72;29.20;;;1.00;99.90;;;;;;5030403;28;20025;-79
2021/01/11 03:02:31;;;;;;;59.60;31.83;;;1.00;99.90;;;;;;5068022;28;20041;-78
2021/01/11 03:04:57;;;;;;;69.50;33.08;;;1.00;99.90;;;;;;5073475;28;20055;-79
2021/01/11 03:07:23;;;;;;;56.55;29.23;;;1.00;99.90;;;;;;5073628;28;20107;-79
2021/01/11 03:09:49;;;;;;;60.58;31.83;;;1.00;99.90;;;;;;5073204;28;20119;-79
2021/01/11 03:12:16;;;;;;;59.92;28.63;;;1.00;99.90;;;;;;5073352;28;20052;-79
2021/01/11 03:14:42;;;;;;;50.83;28.70;;;1.00;99.90;;;;;;5055061;28;20787;-79
2021/01/11 03:17:08;;;;;;;62.22;30.73;;;1.00;99.90;;;;;;5054959;28;20051;-79
2021/01/11 03:19:34;;;;;;;56.15;29.10;;;1.00;99.90;;;;;;5072874;28;20056;-78
2021/01/11 03:22:00;;;;;;;66.43;32.85;;;0.90;99.90;;;;;;5073085;28;20063;-79
2021/01/11 03:24:26;;;;;;;56.05;30.13;;;1.00;99.90;;;;;;5073083;28;20032;-79
2021/01/11 03:26:51;;;;;;;57.40;30.00;;;1.00;99.90;;;;;;5073089;28;20490;-79
2021/01/11 03:29:19;;;;;;;74.07;34.40;;;0.90;99.90;;;;;;5073068;28;20048;-79
2021/01/11 03:31:46;;;;;;;60.70;30.35;;;1.00;99.90;;;;;;5072924;28;20031;-79
2021/01/11 03:34:12;;;;;;;64.78;32.83;;;1.00;99.90;;;;;;5073069;28;20020;-78
2021/01/11 03:36:39;;;;;;;57.25;29.90;;;0.90;99.90;;;;;;5054796;28;20021;-78
2021/01/11 03:39:07;;;;;;;61.75;31.65;;;0.90;99.90;;;;;;5072836;28;20024;-79
2021/01/11 03:41:37;;;;;;;56.13;30.83;;;0.90;99.90;;;;;;5054862;28;20032;-79
2021/01/11 03:44:03;;;;;;;63.00;31.75;;;0.90;99.90;;;;;;5074528;28;20407;-79
2021/01/11 03:46:30;;;;;;;64.63;30.65;;;0.90;99.90;;;;;;5076907;28;20035;-79
2021/01/11 03:48:56;;;;;;;74.07;33.20;;;0.90;99.90;;;;;;5076778;28;20036;-79
2021/01/11 03:51:22;;;;;;;66.78;34.10;;;0.90;99.90;;;;;;5076454;28;20464;-79
2021/01/11 03:53:48;;;;;;;60.13;32.30;;;0.90;99.90;;;;;;5076970;28;20051;-79
2021/01/11 03:56:14;;;;;;;57.90;30.20;;;0.90;99.90;;;;;;5076853;28;20442;-79
2021/01/11 03:58:40;;;;;;;60.75;31.35;;;0.90;99.90;;;;;;5058809;28;20164;-79
2021/01/11 04:01:06;;;;;;;60.40;30.15;;;0.90;99.90;;;;;;5058619;28;20032;-79
2021/01/11 04:03:32;;;;;;;55.58;29.00;;;0.90;99.90;;;;;;5076898;28;20032;-80
2021/01/11 04:05:58;;;;;;;63.63;32.35;;;0.90;99.90;;;;;;5076782;28;20033;-80
2021/01/11 04:08:25;;;;;;;61.10;29.25;;;0.90;99.90;;;;;;5076828;28;20099;-80
2021/01/11 04:10:51;;;;;;;57.10;30.00;;;0.90;99.90;;;;;;5076663;28;20472;-79
2021/01/11 04:13:18;;;;;;;59.22;29.58;;;0.90;99.90;;;;;;5076727;28;20028;-80
2021/01/11 04:15:45;;;;;;;61.95;31.42;;;0.90;99.90;;;;;;5076820;28;20017;-80
2021/01/11 04:18:10;;;;;;;75.97;35.90;;;0.90;99.90;;;;;;5076649;28;20024;-80
2021/01/11 04:20:36;;;;;;;79.35;35.42;;;0.90;99.90;;;;;;5076761;28;20021;-80
2021/01/11 04:23:03;;;;;;;74.10;36.65;;;0.90;99.90;;;;;;5076639;28;20028;-80
2021/01/11 04:25:29;;;;;;;60.17;31.08;;;0.90;99.90;;;;;;5076906;28;20104;-80
2021/01/11 04:28:00;;;;;;;62.35;31.70;;;0.90;99.90;;;;;;5058771;28;20124;-80
2021/01/11 04:30:27;;;;;;;65.15;31.45;;;0.90;99.90;;;;;;5076284;28;20127;-80
2021/01/11 04:32:57;;;;;;;67.45;35.67;;;0.90;99.90;;;;;;5076696;28;20372;-80
2021/01/11 04:35:27;;;;;;;88.38;41.83;;;0.90;99.90;;;;;;5076263;28;20056;-80
2021/01/11 04:37:53;;;;;;;79.10;37.22;;;0.90;99.90;;;;;;5076314;28;20028;-80
2021/01/11 04:40:19;;;;;;;66.25;36.60;;;0.90;99.90;;;;;;5076237;28;20054;-80
2021/01/11 04:42:48;;;;;;;67.15;33.63;;;0.90;99.90;;;;;;5076723;28;20025;-80
2021/01/11 04:45:19;;;;;;;74.03;38.17;;;0.90;99.90;;;;;;5076107;28;20025;-80
2021/01/11 04:47:50;;;;;;;66.18;33.45;;;0.90;99.90;;;;;;5076157;28;20029;-80
2021/01/11 04:50:17;;;;;;;66.38;34.50;;;0.90;99.90;;;;;;5075992;28;20598;-80
2021/01/11 04:52:45;;;;;;;63.17;31.55;;;0.90;99.90;;;;;;5076257;28;20103;-80
2021/01/11 04:55:12;;;;;;;57.08;29.80;;;0.80;99.90;;;;;;5075365;28;20550;-80
2021/01/11 04:57:50;;;;;;;63.17;33.35;;;0.80;99.90;;;;;;5076062;28;20103;-80
2021/01/11 05:00:19;;;;;;;55.60;29.35;;;0.80;99.90;;;;;;5075918;28;20468;-80
2021/01/11 05:02:46;;;;;;;71.30;34.95;;;0.90;99.90;;;;;;5075873;28;20131;-80
2021/01/11 05:05:13;;;;;;;68.95;37.67;;;0.90;99.90;;;;;;5076082;28;20032;-80
2021/01/11 05:07:39;;;;;;;60.17;33.47;;;0.80;99.90;;;;;;5075723;28;20029;-80
2021/01/11 05:10:08;;;;;;;75.50;37.58;;;0.90;99.90;;;;;;5075554;28;20035;-80
2021/01/11 05:12:34;;;;;;;73.45;34.35;;;0.80;99.90;;;;;;5075933;28;20043;-79
2021/01/11 05:15:17;;;;;;;67.88;35.67;;;0.90;99.90;;;;;;5057506;28;20234;-79
2021/01/11 05:17:44;;;;;;;77.97;40.85;;;0.90;99.90;;;;;;5075348;28;20099;-79
2021/01/11 05:20:14;;;;;;;82.75;41.17;;;0.90;99.90;;;;;;5075321;28;20025;-79
2021/01/11 05:22:48;;;;;;;72.75;38.30;;;0.90;99.90;;;;;;5057317;28;20692;-79
2021/01/11 05:25:17;;;;;;;82.50;42.35;;;0.80;99.90;;;;;;5074684;28;20031;-79
2021/01/11 05:27:44;;;;;;;100.00;53.95;;;0.80;99.90;;;;;;5074372;28;20025;-79
2021/01/11 05:30:22;;;;;;;93.15;48.72;;;0.80;99.90;;;;;;5074518;28;20055;-79
2021/01/11 05:32:48;;;;;;;81.60;42.05;;;0.80;99.90;;;;;;5074558;28;20031;-79
2021/01/11 05:35:22;;;;;;;83.55;42.30;;;0.80;99.90;;;;;;5074721;28;20027;-79
2021/01/11 05:37:48;;;;;;;73.65;38.25;;;0.80;99.90;;;;;;5074986;28;20025;-79
2021/01/11 05:40:15;;;;;;;86.22;44.33;;;0.80;99.90;;;;;;5075075;28;20017;-79
2021/01/11 05:42:47;;;;;;;109.13;53.80;;;0.80;99.90;;;;;;5074737;28;20032;-79
2021/01/11 05:45:15;;;;;;;228.80;88.32;;;0.80;99.90;;;;;;5074558;28;20069;-79
2021/01/11 05:48:06;;;;;;;157.82;71.25;;;0.80;99.90;;;;;;5074461;28;20129;-79
2021/01/11 05:50:33;;;;;;;;;;;0.80;99.90;;;;;;5074781;28;20038;-79
2021/01/11 05:52:59;;;;;;;89.95;42.08;;;0.80;99.90;;;;;;5074615;28;19940;-79
2021/01/11 05:55:27;;;;;;;105.10;51.15;;;0.80;99.90;;;;;;5074582;28;20020;-79
2021/01/11 05:58:03;;;;;;;94.47;45.85;;;0.80;99.90;;;;;;5074706;28;20016;-79
2021/01/11 06:00:37;;;;;;;84.38;37.25;;;0.80;99.90;;;;;;5074651;28;20487;-79
2021/01/11 06:03:06;;;;;;;91.93;40.47;;;0.80;99.90;;;;;;5074402;28;20103;-80
2021/01/11 06:05:33;;;;;;;130.65;41.60;;;0.70;99.90;;;;;;5056051;28;20391;-80
2021/01/11 06:08:00;;;;;;;79.90;39.75;;;0.70;99.90;;;;;;5073986;28;20540;-80
2021/01/11 06:10:26;;;;;;;83.22;39.90;;;0.70;99.90;;;;;;5074200;28;20379;-80
2021/01/11 06:12:53;;;;;;;86.95;39.38;;;0.70;99.90;;;;;;5073991;28;20137;-80
2021/01/11 06:15:24;;;;;;;83.60;37.08;;;0.70;99.90;;;;;;5074156;28;20468;-80
2021/01/11 06:17:55;;;;;;;85.85;40.05;;;0.70;99.90;;;;;;5074195;28;20599;-80
2021/01/11 06:20:27;;;;;;;82.35;39.85;;;0.70;99.90;;;;;;5074039;28;20494;-80
2021/01/11 06:22:54;;;;;;;80.32;37.72;;;0.70;99.90;;;;;;5056274;28;20037;-80
2021/01/11 06:25:22;;;;;;;94.57;42.30;;;0.70;99.90;;;;;;5074206;28;20524;-81
2021/01/11 06:28:01;;;;;;;167.77;53.00;;;0.70;99.90;;;;;;5073878;28;20034;-81
2021/01/11 06:30:46;;;;;;;94.20;46.90;;;0.70;99.90;;;;;;5073540;28;20506;-82
2021/01/11 06:33:25;;;;;;;88.13;43.67;;;0.70;99.90;;;;;;5074226;28;20070;-81
2021/01/11 06:35:53;;;;;;;114.35;47.05;;;0.70;99.90;;;;;;5074036;28;20024;-81
2021/01/11 06:38:25;;;;;;;89.32;41.28;;;0.70;99.90;;;;;;5055935;28;20024;-81
2021/01/11 06:40:54;;;;;;;85.45;41.90;;;0.70;99.90;;;;;;5073499;28;20035;-81
2021/01/11 06:43:21;;;;;;;88.07;42.00;;;0.70;99.90;;;;;;5073491;28;20028;-81
2021/01/11 06:45:48;;;;;;;88.57;41.80;;;0.70;99.90;;;;;;5072655;28;20135;-83
2021/01/11 06:48:17;;;;;;;98.30;47.25;;;0.70;99.90;;;;;;5072758;28;20020;-80
2021/01/11 06:50:45;;;;;;;93.55;44.63;;;0.70;99.90;;;;;;5073134;28;20028;-80
2021/01/11 06:53:11;;;;;;;102.40;46.25;;;0.70;99.90;;;;;;5073098;28;20028;-81
2021/01/11 06:55:37;;;;;;;93.45;42.45;;;0.70;99.90;;;;;;5072648;28;20594;-81
2021/01/11 06:58:03;;;;;;;99.85;49.80;;;0.70;99.90;;;;;;5072794;28;20105;-80
2021/01/11 07:00:36;;;;;;;122.43;53.58;;;0.70;99.90;;;;;;5072771;28;20146;-80
2021/01/11 07:03:04;;;;;;;140.57;64.85;;;0.70;99.90;;;;;;5072684;28;20146;-82
2021/01/11 07:05:33;;;;;;;159.70;72.13;;;0.70;99.90;;;;;;5054828;28;20364;-82
2021/01/11 07:08:10;;;;;;;146.90;62.65;;;0.70;99.90;;;;;;5073230;28;20103;-81
2021/01/11 07:10:37;;;;;;;167.27;77.25;;;0.70;99.90;;;;;;5073615;28;20066;-81
2021/01/11 07:13:18;;;;;;;186.23;85.70;;;0.60;99.90;;;;;;5073511;28;20074;-82
2021/01/11 07:15:45;;;;;;;169.25;77.05;;;0.60;99.90;;;;;;5073487;28;20514;-82
2021/01/11 07:18:10;;;;;;;186.82;86.78;;;0.70;99.90;;;;;;5072511;28;20029;-82
2021/01/11 07:20:43;;;;;;;183.95;90.90;;;0.60;99.90;;;;;;5073592;28;20356;-82
2021/01/11 07:23:09;;;;;;;152.93;72.68;;;0.70;99.90;;;;;;5073897;28;20020;-82
2021/01/11 07:25:36;;;;;;;161.35;73.35;;;0.70;99.90;;;;;;5073377;28;20099;-82
2021/01/11 07:28:04;;;;;;;155.40;72.72;;;0.60;99.90;;;;;;5073297;28;20108;-83
2021/01/11 07:30:35;;;;;;;130.65;64.93;;;0.70;99.90;;;;;;5051803;28;20496;-82
2021/01/11 07:33:10;;;;;;;125.90;56.95;;;0.70;99.90;;;;;;5053581;28;20017;-80
2021/01/11 07:35:40;;;;;;;131.07;61.53;;;0.80;99.90;;;;;;5053219;28;20051;-79
2021/01/11 07:38:11;;;;;;;126.28;61.83;;;0.70;99.90;;;;;;5053263;28;20376;-82
2021/01/11 07:40:37;;;;;;;113.97;47.30;;;0.80;99.90;;;;;;5049772;28;20124;-77
2021/01/11 07:43:03;;;;;;;104.75;51.15;;;1.20;99.90;;;;;;5050922;28;20100;-76
2021/01/11 07:45:29;;;;;;;126.65;63.53;;;1.40;99.90;;;;;;5050840;28;20124;-78
2021/01/11 07:47:55;;;;;;;130.05;60.35;;;1.50;99.90;;;;;;5049904;28;20515;-77
2021/01/11 07:50:28;;;;;;;111.55;55.03;;;1.70;99.90;;;;;;5039720;28;20102;-77
2021/01/11 07:52:57;;;;;;;119.40;52.78;;;1.90;99.90;;;;;;5041660;28;20483;-79
2021/01/11 07:55:28;;;;;;;206.13;94.43;;;1.80;99.90;;;;;;5043448;28;20021;-83
2021/01/11 07:58:01;;;;;;;804.90;541.45;;;2.00;99.90;;;;;;5043319;28;20105;-79
2021/01/11 08:00:27;;;;;;;476.98;313.00;;;1.90;99.90;;;;;;5041763;28;20353;-79
2021/01/11 08:02:54;;;;;;;319.27;171.48;;;1.80;99.90;;;;;;5043219;28;20074;-79
2021/01/11 08:05:24;;;;;;;648.83;415.63;;;1.80;99.90;;;;;;5042127;28;20033;-80
2021/01/11 08:08:04;;;;;;;337.85;188.30;;;1.80;99.90;;;;;;5042867;28;20032;-81
2021/01/11 08:10:32;;;;;;;219.65;109.28;;;1.90;99.90;;;;;;5042685;28;20029;-78
2021/01/11 08:13:08;;;;;;;146.13;68.50;;;2.10;99.90;;;;;;5041264;28;20411;-79
2021/01/11 08:15:34;;;;;;;157.02;72.45;;;2.10;99.90;;;;;;5041043;28;20526;-79
2021/01/11 08:18:02;;;;;;;206.45;96.18;;;2.30;99.90;;;;;;5041678;28;20087;-77
2021/01/11 08:20:28;;;;;;;155.52;77.07;;;2.60;99.90;;;;;;5037165;28;20032;-77
2021/01/11 08:22:54;;;;;;;161.10;72.25;;;2.80;99.90;;;;;;5031397;28;20032;-78
2021/01/11 08:25:21;;;;;;;157.90;71.70;;;2.30;99.90;;;;;;5031577;28;20033;-78
2021/01/11 08:27:50;;;;;;;153.90;65.60;;;2.00;99.90;;;;;;5039573;28;20086;-78
2021/01/11 08:30:20;;;;;;;185.73;87.77;;;1.70;99.90;;;;;;5051898;28;20564;-77
2021/01/11 08:32:47;;;;;;;111.80;47.78;;;1.60;99.90;;;;;;5054782;28;20071;-78
2021/01/11 08:35:15;;;;;;;151.40;67.97;;;1.50;99.90;;;;;;5054346;28;20021;-76
2021/01/11 08:37:43;;;;;;;148.23;69.10;;;1.40;99.90;;;;;;5054679;28;20025;-78
2021/01/11 08:40:32;;;;;;;203.63;92.88;;;1.40;99.90;;;;;;5053551;28;20083;-78
2021/01/11 08:43:25;;;;;;;172.45;75.68;;;1.30;99.90;;;;;;5053593;28;20033;-78
2021/01/11 08:45:52;;;;;;;161.27;74.82;;;1.30;99.90;;;;;;5041847;28;20056;-78
2021/01/11 08:48:25;;;;;;;141.05;61.00;;;1.30;99.90;;;;;;5039219;28;20040;-77
2021/01/11 08:50:51;;;;;;;167.10;70.10;;;1.20;99.90;;;;;;5034246;28;20543;-77
2021/01/11 08:53:38;;;;;;;165.00;70.97;;;1.30;99.90;;;;;;5034264;28;20030;-78
2021/01/11 08:56:09;;;;;;;221.13;98.63;;;1.40;99.90;;;;;;5046796;28;20052;-77
2021/01/11 08:58:46;;;;;;;183.85;80.78;;;1.50;99.90;;;;;;5054014;28;20028;-77
2021/01/11 09:01:16;;;;;;;147.27;65.40;;;1.60;99.90;;;;;;5046921;28;20048;-78
2021/01/11 09:03:52;;;;;;;144.65;69.72;;;1.60;99.90;;;;;;5053955;28;20025;-78
2021/01/11 09:06:37;;;;;;;150.85;63.95;;;1.50;99.90;;;;;;5054385;28;20170;-78
2021/01/11 09:09:12;;;;;;;121.53;56.55;;;1.50;99.90;;;;;;5054214;28;20464;-78
2021/01/11 09:11:38;;;;;;;141.60;64.20;;;1.50;99.90;;;;;;5053704;28;20086;-78
2021/01/11 09:14:12;;;;;;;136.32;68.32;;;1.50;99.90;;;;;;5053848;28;20025;-78
2021/01/11 09:16:39;;;;;;;138.40;62.88;;;1.50;99.90;;;;;;5053843;28;20131;-78
2021/01/11 09:19:16;;;;;;;142.13;65.22;;;1.50;99.90;;;;;;5052894;28;20063;-77
2021/01/11 09:21:44;;;;;;;153.98;70.60;;;1.50;99.90;;;;;;5045131;28;20059;-78
2021/01/11 09:24:11;;;;;;;152.40;72.20;;;1.50;99.90;;;;;;5051417;28;20021;-78
2021/01/11 09:26:38;;;;;;;152.43;72.32;;;1.50;99.90;;;;;;5051925;28;20018;-78
2021/01/11 09:29:05;;;;;;;145.68;73.00;;;1.50;99.90;;;;;;5051953;28;20037;-78
2021/01/11 09:31:32;;;;;;;141.32;70.93;;;1.80;99.90;;;;;;5072744;28;20076;-78
2021/01/11 09:33:58;;;;;;;153.05;72.38;;;1.80;99.90;;;;;;5073425;28;20025;-78
2021/01/11 09:36:30;;;;;;;152.98;72.40;;;1.70;99.90;;;;;;5069452;28;20021;-78
2021/01/11 09:38:56;;;;;;;174.35;80.40;;;1.70;99.90;;;;;;5072808;28;20455;-79
2021/01/11 09:41:21;;;;;;;162.85;78.15;;;1.80;99.90;;;;;;5054489;28;20031;-78
2021/01/11 09:43:47;;;;;;;173.35;79.47;;;1.70;99.90;;;;;;5072020;28;20020;-78
2021/01/11 09:46:13;;;;;;;175.32;91.80;;;1.70;99.90;;;;;;5072640;28;20506;-78
2021/01/11 09:48:39;;;;;;;180.52;84.97;;;1.80;99.90;;;;;;5072477;28;20487;-78
2021/01/11 09:51:05;;;;;;;206.13;98.50;;;1.80;99.90;;;;;;5053468;28;20032;-78
2021/01/11 09:53:31;;;;;;;194.02;96.57;;;1.90;99.90;;;;;;5073170;28;20027;-78
2021/01/11 09:55:56;;;;;;;224.18;106.82;;;2.00;99.90;;;;;;5072753;28;20029;-79
2021/01/11 09:58:23;;;;;;;232.88;115.50;;;1.90;99.90;;;;;;5072708;28;20028;-78
2021/01/11 10:00:49;;;;;;;186.02;93.00;;;1.90;99.90;;;;;;5072563;28;20425;-79
2021/01/11 10:03:14;;;;;;;157.68;79.30;;;1.90;99.90;;;;;;5072827;28;20049;-78
2021/01/11 10:05:40;;;;;;;114.93;59.80;;;2.00;99.90;;;;;;5071841;28;20450;-78
2021/01/11 10:08:06;;;;;;;128.18;67.80;;;2.20;99.90;;;;;;5073328;28;20033;-79
2021/01/11 10:10:32;;;;;;;162.82;83.60;;;2.80;99.90;;;;;;5073251;28;20475;-79
2021/01/11 10:12:57;;;;;;;133.93;67.93;;;2.50;99.90;;;;;;5073107;28;20024;-79
2021/01/11 10:15:23;;;;;;;214.25;109.22;;;2.40;99.90;;;;;;5073153;28;20031;-79
2021/01/11 10:17:49;;;;;;;185.93;95.72;;;2.30;99.90;;;;;;5072976;28;20025;-80
2021/01/11 10:20:15;;;;;;;173.82;89.07;;;2.30;99.90;;;;;;5072930;28;20099;-80
2021/01/11 10:22:41;;;;;;;144.75;75.30;;;2.30;99.90;;;;;;5073278;28;20035;-80
2021/01/11 10:25:08;;;;;;;147.13;78.05;;;2.30;99.90;;;;;;5070258;28;20028;-80
2021/01/11 10:27:35;;;;;;;143.63;74.53;;;2.30;99.90;;;;;;5063803;28;20060;-77
2021/01/11 10:30:03;;;;;;;113.72;58.05;;;2.20;99.90;;;;;;5066384;28;20045;-77
2021/01/11 10:32:28;;;;;;;119.97;60.10;;;2.30;99.90;;;;;;5054210;28;20037;-77
2021/01/11 10:34:54;;;;;;;124.90;62.20;;;2.30;99.90;;;;;;5044219;28;20031;-76
2021/01/11 10:37:20;;;;;;;135.93;67.40;;;2.30;99.90;;;;;;5046869;28;20075;-77
2021/01/11 10:39:46;;;;;;;118.78;62.10;;;2.30;99.90;;;;;;5072448;28;20570;-77
2021/01/11 10:42:12;;;;;;;106.90;53.30;;;2.30;99.90;;;;;;5071138;28;20033;-77
2021/01/11 10:44:38;;;;;;;116.20;60.25;;;2.40;99.90;;;;;;5055049;28;20494;-77
2021/01/11 10:47:03;;;;;;;136.70;67.38;;;2.40;99.90;;;;;;5054583;28;20029;-77
2021/01/11 10:49:30;;;;;;;107.32;54.15;;;2.30;99.90;;;;;;5054815;28;20024;-77
2021/01/11 10:51:56;;;;;;;121.28;63.33;;;2.30;99.90;;;;;;5055211;28;20131;-77
2021/01/11 10:54:24;;;;;;;123.40;62.47;;;2.30;99.90;;;;;;5055035;28;20099;-76
2021/01/11 10:56:51;;;;;;;113.03;58.17;;;2.30;99.90;;;;;;5054216;28;20082;-77
2021/01/11 10:59:18;;;;;;;113.65;58.65;;;2.30;99.90;;;;;;5072678;28;20044;-77
2021/01/11 11:01:44;;;;;;;124.20;61.55;;;2.40;99.90;;;;;;5071852;28;20082;-76
2021/01/11 11:04:11;;;;;;;122.68;59.97;;;2.60;99.90;;;;;;5071776;28;20020;-77
2021/01/11 11:06:38;;;;;;;111.38;55.40;;;2.50;99.90;;;;;;5071529;28;20622;-76
2021/01/11 11:09:04;;;;;;;110.82;52.92;;;2.40;99.90;;;;;;5071542;28;20036;-76
2021/01/11 11:11:30;;;;;;;108.78;55.80;;;2.40;99.90;;;;;;5071625;28;20035;-76
2021/01/11 11:13:56;;;;;;;124.43;61.58;;;2.40;99.90;;;;;;5071509;28;20021;-76
2021/01/11 11:16:22;;;;;;;125.55;64.00;;;2.30;99.90;;;;;;5071416;28;20554;-76
2021/01/11 11:18:48;;;;;;;122.57;62.92;;;2.30;99.90;;;;;;5070234;28;20029;-76
2021/01/11 11:21:14;;;;;;;138.80;67.28;;;2.20;99.90;;;;;;5071131;28;20031;-76
2021/01/11 11:23:41;;;;;;;115.47;58.50;;;2.20;99.90;;;;;;5071269;28;20107;-76
2021/01/11 11:26:09;;;;;;;125.75;61.63;;;2.20;99.90;;;;;;5071215;28;20082;-76
2021/01/11 11:28:36;;;;;;;148.65;66.30;;;2.20;99.90;;;;;;5070467;28;20066;-77
2021/01/11 11:31:03;;;;;;;141.38;67.15;;;2.20;99.90;;;;;;5054385;28;20411;-78
2021/01/11 11:33:29;;;;;;;153.00;71.97;;;2.50;99.90;;;;;;5091026;28;20016;-78
2021/01/11 11:35:55;;;;;;;129.25;64.95;;;2.30;99.90;;;;;;5091219;28;20028;-77
2021/01/11 11:38:22;;;;;;;133.88;62.70;;;2.30;99.90;;;;;;5091341;28;20093;-77
2021/01/11 11:40:50;;;;;;;121.25;63.05;;;2.30;99.90;;;;;;5090139;28;20027;-76
2021/01/11 11:43:16;;;;;;;130.98;65.07;;;2.30;99.90;;;;;;5073379;28;20070;-77
2021/01/11 11:45:42;;;;;;;149.60;73.72;;;2.30;99.90;;;;;;5072767;28;20531;-77
2021/01/11 11:48:15;;;;;;;139.45;66.80;;;2.30;99.90;;;;;;5071340;28;20027;-77
2021/01/11 11:50:42;;;;;;;147.20;70.82;;;2.30;99.90;;;;;;5071702;28;20543;-78
2021/01/11 11:53:08;;;;;;;135.80;65.90;;;2.20;99.90;;;;;;5071329;28;20063;-78
2021/01/11 11:55:35;;;;;;;138.57;70.30;;;2.20;99.90;;;;;;5053550;28;20059;-78
2021/01/11 11:58:01;;;;;;;151.40;71.95;;;2.20;99.90;;;;;;5053606;28;20035;-77
2021/01/11 12:00:27;;;;;;;149.48;72.30;;;2.30;99.90;;;;;;5053885;28;20020;-78
2021/01/11 12:02:52;;;;;;;137.23;70.85;;;2.20;99.90;;;;;;5072412;28;20029;-78
2021/01/11 12:05:18;;;;;;;136.65;69.15;;;2.30;99.90;;;;;;5074831;28;20028;-77
2021/01/11 12:07:49;;;;;;;123.32;64.03;;;2.30;99.90;;;;;;5076907;28;20031;-78
2021/01/11 12:10:16;;;;;;;131.20;68.70;;;2.30;99.90;;;;;;5076640;28;20166;-78
2021/01/11 12:12:45;;;;;;;110.75;57.60;;;2.20;99.90;;;;;;5076079;28;20317;-78
2021/01/11 12:15:11;;;;;;;130.15;66.20;;;2.20;99.90;;;;;;5058559;28;20056;-78
2021/01/11 12:17:37;;;;;;;134.23;65.63;;;2.30;99.90;;;;;;5075754;28;20025;-77
2021/01/11 12:20:07;;;;;;;165.70;77.88;;;2.60;99.90;;;;;;5075347;28;20160;-78
2021/01/11 12:22:34;;;;;;;;;;;2.70;99.90;;;;;;5058383;28;20456;-78
2021/01/11 12:25:00;;;;;;;123.93;63.25;;;2.60;99.90;;;;;;5075741;28;19954;-80
2021/01/11 12:27:25;;;;;;;126.65;62.90;;;2.50;99.90;;;;;;5075785;28;20028;-79
2021/01/11 12:29:51;;;;;;;124.78;63.67;;;2.50;99.90;;;;;;5074447;28;20084;-80
2021/01/11 12:32:18;;;;;;;120.05;58.58;;;2.40;99.90;;;;;;5071538;28;20025;-79
2021/01/11 12:34:44;;;;;;;121.70;60.55;;;2.40;99.90;;;;;;5075155;28;20490;-79
2021/01/11 12:37:13;;;;;;;118.40;56.15;;;2.40;99.90;;;;;;5056995;28;20056;-79
2021/01/11 12:39:40;;;;;;;107.60;53.05;;;2.40;99.90;;;;;;5075443;28;20020;-80
2021/01/11 12:42:13;;;;;;;95.57;51.10;;;2.40;99.90;;;;;;5075211;28;20024;-79